Time;durP1;ratioP1;P1;durP2;ratioP2;P2;SDS_P1;SDS_P2;PMS_P1;PMS_P2;Temp;Humidity;BMP_temperature;BMP_pressure;BME280_temperature;BME280_humidity;BME280_pressure;Samples;Min_cycle;Max_cycle;Signal;HPM_P1;HPM_P2
2022/07/07 00:01:40;;;;;;;5.30;4.70;;;16.00;78.40;;;;;;5088168;28;20441;-72
2022/07/07 00:04:26;;;;;;;4.70;4.20;;;16.00;80.60;;;;;;5086870;28;20552;-72
2022/07/07 00:07:13;;;;;;;4.97;3.90;;;16.00;80.60;;;;;;5086081;28;20446;-72
2022/07/07 00:09:59;;;;;;;10.10;4.23;;;15.80;80.50;;;;;;5087236;28;20457;-72
2022/07/07 00:12:44;;;;;;;11.87;4.90;;;15.70;81.70;;;;;;5091801;28;20469;-72
2022/07/07 00:15:30;;;;;;;8.10;4.80;;;16.00;82.50;;;;;;5087996;28;20453;-72
2022/07/07 00:18:16;;;;;;;8.07;4.30;;;16.00;82.90;;;;;;5086652;28;20441;-72
2022/07/07 00:21:02;;;;;;;5.60;4.40;;;15.90;81.40;;;;;;5087567;28;20492;-72
2022/07/07 00:23:49;;;;;;;5.80;4.23;;;16.00;80.60;;;;;;5089432;28;20503;-72
2022/07/07 00:26:35;;;;;;;5.07;4.57;;;15.90;80.60;;;;;;5085345;28;20438;-73
2022/07/07 00:29:21;;;;;;;4.60;4.20;;;15.90;80.60;;;;;;5087036;28;20446;-72
2022/07/07 00:32:07;;;;;;;8.30;4.70;;;16.00;82.00;;;;;;5087450;28;20539;-72
2022/07/07 00:34:52;;;;;;;6.20;4.03;;;16.00;81.80;;;;;;5085761;28;20484;-72
2022/07/07 00:37:38;;;;;;;16.50;4.23;;;16.00;81.60;;;;;;5087321;28;20449;-72
2022/07/07 00:40:25;;;;;;;10.20;4.20;;;16.20;82.00;;;;;;5083512;28;20510;-72
2022/07/07 00:43:11;;;;;;;5.63;3.80;;;16.20;80.10;;;;;;5082014;28;21060;-72
2022/07/07 00:45:56;;;;;;;4.30;3.90;;;16.10;79.10;;;;;;5080542;28;20473;-72
2022/07/07 00:48:42;;;;;;;10.33;4.90;;;15.90;80.00;;;;;;5087676;28;20560;-72
2022/07/07 00:51:28;;;;;;;6.80;4.27;;;16.10;80.70;;;;;;5089045;28;20442;-72
2022/07/07 00:54:14;;;;;;;5.90;4.50;;;16.00;80.60;;;;;;5091894;28;20492;-73
2022/07/07 00:57:01;;;;;;;5.13;4.23;;;16.00;81.60;;;;;;5086751;28;20503;-72
2022/07/07 00:59:47;;;;;;;7.20;4.57;;;16.00;81.30;;;;;;5089872;28;20434;-72
2022/07/07 01:02:33;;;;;;;6.50;4.57;;;16.00;82.90;;;;;;5101961;22;21644;-72
2022/07/07 01:05:18;;;;;;;11.97;4.60;;;16.00;84.00;;;;;;5068414;28;20834;-72
2022/07/07 01:08:08;;;;;;;5.03;4.53;;;16.00;83.70;;;;;;5074408;28;20781;-72
2022/07/07 01:10:54;;;;;;;7.30;4.57;;;16.20;82.90;;;;;;5068613;28;20481;-71
2022/07/07 01:13:41;;;;;;;5.97;4.60;;;16.30;83.60;;;;;;5068097;28;20504;-72
2022/07/07 01:16:33;;;;;;;6.57;4.23;;;16.30;82.80;;;;;;5069690;28;20501;-72
2022/07/07 01:19:20;;;;;;;6.63;4.73;;;16.20;82.40;;;;;;5072440;28;20636;-71
2022/07/07 01:22:12;;;;;;;6.43;3.73;;;16.10;82.00;;;;;;5070277;28;20418;-71
2022/07/07 01:24:59;;;;;;;7.40;4.40;;;16.00;80.30;;;;;;5071538;28;21161;-72
2022/07/07 01:27:45;;;;;;;7.60;4.37;;;15.90;81.20;;;;;;5073143;28;20950;-72
2022/07/07 01:30:31;;;;;;;5.10;4.60;;;15.90;83.80;;;;;;5068595;28;20537;-72
2022/07/07 01:33:17;;;;;;;5.60;4.97;;;15.60;85.10;;;;;;5070180;28;20457;-72
2022/07/07 01:36:03;;;;;;;6.40;4.33;;;15.60;86.40;;;;;;5066613;28;20807;-72
2022/07/07 01:38:48;;;;;;;7.93;4.20;;;15.60;86.80;;;;;;5068003;28;20569;-71
2022/07/07 01:41:35;;;;;;;5.27;4.77;;;15.70;86.70;;;;;;5068698;28;20943;-72
2022/07/07 01:44:21;;;;;;;7.63;4.50;;;15.70;86.70;;;;;;5065152;28;20865;-70
2022/07/07 01:47:08;;;;;;;4.83;4.33;;;15.70;86.40;;;;;;5075150;28;20801;-71
2022/07/07 01:49:53;;;;;;;8.70;4.50;;;15.70;85.60;;;;;;5070307;28;20458;-72
2022/07/07 01:52:39;;;;;;;6.33;4.73;;;15.50;85.60;;;;;;5069996;28;20457;-71
2022/07/07 01:55:25;;;;;;;5.57;4.73;;;15.40;86.50;;;;;;5072304;28;20424;-72
2022/07/07 01:58:13;;;;;;;5.53;4.40;;;15.30;86.40;;;;;;5077944;28;20449;-72
2022/07/07 02:00:59;;;;;;;6.80;4.77;;;15.30;85.90;;;;;;5075466;28;20593;-72
2022/07/07 02:03:44;;;;;;;8.53;5.10;;;15.30;86.20;;;;;;5075490;28;20477;-71
2022/07/07 02:06:30;;;;;;;6.00;5.00;;;15.30;86.50;;;;;;5076805;28;20434;-72
2022/07/07 02:09:16;;;;;;;5.60;4.27;;;15.30;86.90;;;;;;5072044;28;20971;-71
2022/07/07 02:12:02;;;;;;;4.50;4.00;;;15.40;87.50;;;;;;5073510;28;20422;-72
2022/07/07 02:14:49;;;;;;;5.97;4.37;;;15.40;86.60;;;;;;5069032;28;20948;-72
2022/07/07 02:17:35;;;;;;;14.17;4.77;;;15.40;86.70;;;;;;5072963;28;20563;-72
2022/07/07 02:20:21;;;;;;;5.77;4.50;;;15.50;86.90;;;;;;5073492;28;20426;-72
2022/07/07 02:23:07;;;;;;;10.13;4.47;;;15.50;86.60;;;;;;5071420;28;20443;-71
2022/07/07 02:25:52;;;;;;;8.10;4.13;;;15.50;85.90;;;;;;5075103;28;20469;-70
2022/07/07 02:28:38;;;;;;;5.47;4.87;;;15.60;86.60;;;;;;5072303;28;20439;-71
2022/07/07 02:31:25;;;;;;;6.37;4.40;;;15.80;85.80;;;;;;5073456;28;20430;-72
2022/07/07 02:34:11;;;;;;;7.90;4.90;;;16.00;85.20;;;;;;5072638;28;20467;-71
2022/07/07 02:36:57;;;;;;;6.80;4.73;;;15.90;84.80;;;;;;5084668;28;20438;-72
2022/07/07 02:39:43;;;;;;;8.07;4.67;;;15.80;85.80;;;;;;5073159;28;20430;-72
2022/07/07 02:42:29;;;;;;;5.77;4.63;;;15.70;86.00;;;;;;5075617;28;20466;-70
2022/07/07 02:45:14;;;;;;;7.03;4.40;;;15.80;86.90;;;;;;5074471;28;20477;-72
2022/07/07 02:48:01;;;;;;;7.30;4.50;;;15.70;84.60;;;;;;5074553;28;20457;-72
2022/07/07 02:50:48;;;;;;;5.00;4.30;;;15.80;85.00;;;;;;5072037;28;20453;-70
2022/07/07 02:53:36;;;;;;;5.47;4.73;;;15.80;85.00;;;;;;5071159;28;21010;-71
2022/07/07 02:56:21;;;;;;;6.07;3.90;;;15.90;86.40;;;;;;5074313;28;20426;-70
2022/07/07 02:59:07;;;;;;;8.47;5.93;;;15.90;86.50;;;;;;5071278;28;20810;-72
2022/07/07 03:01:53;;;;;;;6.13;4.80;;;15.90;86.90;;;;;;5072958;28;20810;-72
2022/07/07 03:04:40;;;;;;;5.30;4.53;;;15.80;87.10;;;;;;5070766;28;20487;-72
2022/07/07 03:07:25;;;;;;;4.47;4.03;;;15.80;87.60;;;;;;5071843;28;20402;-71
2022/07/07 03:10:11;;;;;;;7.30;4.40;;;15.70;87.90;;;;;;5072501;28;20431;-72
2022/07/07 03:12:57;;;;;;;5.50;3.60;;;15.80;86.70;;;;;;5071060;28;21111;-72
2022/07/07 03:15:42;;;;;;;5.70;3.80;;;15.90;86.50;;;;;;5076950;28;20561;-72
2022/07/07 03:18:28;;;;;;;6.50;3.97;;;15.90;86.10;;;;;;5076741;28;20515;-72
2022/07/07 03:21:15;;;;;;;5.50;4.30;;;15.90;85.20;;;;;;5071263;28;20414;-72
2022/07/07 03:24:00;;;;;;;5.03;4.40;;;15.90;85.80;;;;;;5072733;28;20536;-71
2022/07/07 03:26:45;;;;;;;5.30;4.10;;;15.80;87.30;;;;;;5074763;28;20470;-72
2022/07/07 03:29:31;;;;;;;5.60;4.73;;;15.50;89.20;;;;;;5072562;28;20446;-72
2022/07/07 03:32:17;;;;;;;5.47;3.93;;;15.30;90.90;;;;;;5072126;28;20903;-72
2022/07/07 03:35:02;;;;;;;4.60;4.00;;;15.20;91.70;;;;;;5068351;28;20442;-72
2022/07/07 03:37:49;;;;;;;5.20;3.90;;;15.10;92.40;;;;;;5068630;28;20540;-72
2022/07/07 03:40:35;;;;;;;5.10;4.30;;;15.20;92.70;;;;;;5071702;28;20402;-71
2022/07/07 03:43:21;;;;;;;6.33;4.30;;;15.30;92.60;;;;;;5068754;28;20484;-72
2022/07/07 03:46:07;;;;;;;4.77;4.27;;;15.40;91.90;;;;;;5068966;28;20466;-71
2022/07/07 03:48:53;;;;;;;10.73;4.40;;;15.40;91.80;;;;;;5071556;28;20817;-71
2022/07/07 03:51:39;;;;;;;5.50;3.77;;;15.50;92.30;;;;;;5066950;28;20461;-72
2022/07/07 03:54:26;;;;;;;7.27;4.70;;;15.70;91.90;;;;;;5068119;28;21038;-71
2022/07/07 03:57:12;;;;;;;7.70;4.47;;;15.70;91.60;;;;;;5070533;28;20454;-72
2022/07/07 03:59:58;;;;;;;4.70;3.60;;;15.80;91.90;;;;;;5068277;28;20446;-71
2022/07/07 04:02:44;;;;;;;6.53;4.77;;;15.70;92.30;;;;;;5068686;28;20485;-71
2022/07/07 04:05:29;;;;;;;5.77;3.97;;;15.60;92.30;;;;;;5064206;28;20529;-71
2022/07/07 04:08:15;;;;;;;7.37;4.93;;;15.40;93.10;;;;;;5069614;28;20427;-72
2022/07/07 04:11:02;;;;;;;8.07;4.67;;;15.30;93.90;;;;;;5073884;28;20465;-72
2022/07/07 04:13:48;;;;;;;5.10;4.47;;;15.30;94.20;;;;;;5064599;28;20561;-72
2022/07/07 04:16:33;;;;;;;5.03;4.53;;;15.50;93.80;;;;;;5070114;28;20959;-71
2022/07/07 04:19:19;;;;;;;8.20;4.90;;;15.50;93.50;;;;;;5072311;28;20500;-71
2022/07/07 04:22:04;;;;;;;4.40;3.87;;;15.60;93.60;;;;;;5070188;28;20496;-70
2022/07/07 04:24:50;;;;;;;6.83;4.33;;;15.70;93.60;;;;;;5075742;28;20427;-71
2022/07/07 04:27:37;;;;;;;5.63;4.80;;;15.70;93.80;;;;;;5065540;28;21070;-72
2022/07/07 04:30:23;;;;;;;6.60;4.90;;;15.70;93.90;;;;;;5070769;28;20419;-72
2022/07/07 04:33:09;;;;;;;5.70;5.03;;;15.80;94.00;;;;;;5074618;28;20986;-71
2022/07/07 04:35:54;;;;;;;6.27;4.30;;;15.80;94.40;;;;;;5071549;28;20940;-70
2022/07/07 04:38:40;;;;;;;6.60;4.53;;;15.80;94.60;;;;;;5070796;28;20496;-72
2022/07/07 04:41:26;;;;;;;5.40;4.73;;;15.90;94.70;;;;;;5071466;28;20443;-72
2022/07/07 04:44:13;;;;;;;5.50;4.67;;;16.00;94.30;;;;;;5073079;28;20459;-71
2022/07/07 04:46:59;;;;;;;8.83;4.27;;;16.00;94.00;;;;;;5068047;28;20474;-70
2022/07/07 04:49:45;;;;;;;5.40;4.33;;;16.00;93.70;;;;;;5070970;28;20443;-73
2022/07/07 04:52:30;;;;;;;5.83;3.90;;;16.10;93.90;;;;;;5065700;28;20589;-71
2022/07/07 04:55:16;;;;;;;5.03;4.53;;;16.20;93.80;;;;;;5069458;28;20442;-71
2022/07/07 04:58:01;;;;;;;8.17;4.70;;;16.30;94.30;;;;;;5067088;28;20426;-71
2022/07/07 05:00:48;;;;;;;7.20;5.10;;;16.20;93.80;;;;;;5071630;28;20966;-72
2022/07/07 05:03:34;;;;;;;6.87;4.60;;;16.30;93.90;;;;;;5071675;28;20474;-71
2022/07/07 05:06:20;;;;;;;6.07;5.10;;;16.20;94.30;;;;;;5070042;28;20490;-72
2022/07/07 05:09:05;;;;;;;5.07;4.50;;;16.30;94.50;;;;;;5070402;28;20990;-71
2022/07/07 05:11:51;;;;;;;7.37;4.40;;;16.30;94.60;;;;;;5065221;28;20455;-72
2022/07/07 05:14:36;;;;;;;5.33;4.60;;;16.40;94.80;;;;;;5064976;28;20446;-71
2022/07/07 05:17:24;;;;;;;5.67;4.20;;;16.40;94.90;;;;;;5070591;28;20426;-71
2022/07/07 05:20:11;;;;;;;5.27;4.77;;;16.50;95.00;;;;;;5069184;28;20965;-72
2022/07/07 05:22:56;;;;;;;9.20;5.20;;;16.70;95.00;;;;;;5063204;28;20466;-68
2022/07/07 05:25:42;;;;;;;14.50;4.77;;;16.80;95.00;;;;;;5070383;28;20465;-72
2022/07/07 05:28:27;;;;;;;6.33;4.87;;;16.70;95.10;;;;;;5069448;28;20422;-72
2022/07/07 05:31:15;;;;;;;6.20;5.03;;;16.70;95.20;;;;;;5075453;28;20991;-69
2022/07/07 05:34:02;;;;;;;6.80;5.40;;;16.70;94.70;;;;;;5073572;28;21023;-72
2022/07/07 05:36:48;;;;;;;7.27;4.93;;;16.80;95.00;;;;;;5069852;28;20406;-71
2022/07/07 05:39:34;;;;;;;6.93;5.17;;;16.80;94.90;;;;;;5075450;28;20417;-71
2022/07/07 05:42:19;;;;;;;11.50;6.20;;;16.80;94.70;;;;;;5068371;28;20446;-71
2022/07/07 05:45:06;;;;;;;6.73;4.80;;;16.90;94.50;;;;;;5070224;28;21247;-72
2022/07/07 05:47:51;;;;;;;6.83;4.90;;;16.90;94.30;;;;;;5074350;28;20422;-71
2022/07/07 05:50:39;;;;;;;6.03;4.83;;;16.90;94.70;;;;;;5073013;28;20947;-71
2022/07/07 05:53:24;;;;;;;6.53;5.03;;;16.90;95.10;;;;;;5072460;28;20446;-72
2022/07/07 05:56:10;;;;;;;8.17;5.20;;;16.90;95.50;;;;;;5073801;28;20422;-72
2022/07/07 05:58:56;;;;;;;6.60;3.87;;;17.00;94.80;;;;;;5070424;28;21034;-68
2022/07/07 06:01:42;;;;;;;6.30;4.73;;;17.00;94.50;;;;;;5075821;28;20470;-72
2022/07/07 06:04:27;;;;;;;6.13;4.63;;;17.00;95.00;;;;;;5079396;28;20466;-72
2022/07/07 06:07:14;;;;;;;5.30;3.77;;;17.00;96.90;;;;;;5072555;28;20470;-72
2022/07/07 06:10:00;;;;;;;6.27;3.07;;;17.00;95.90;;;;;;5075153;28;20928;-70
2022/07/07 06:12:45;;;;;;;3.03;2.40;;;17.10;93.70;;;;;;5083150;28;20453;-72
2022/07/07 06:15:33;;;;;;;4.90;2.60;;;17.20;91.10;;;;;;5069653;28;20477;-72
2022/07/07 06:18:18;;;;;;;4.60;2.10;;;17.40;90.50;;;;;;5076933;28;20585;-72
2022/07/07 06:21:04;;;;;;;5.30;2.00;;;17.40;84.20;;;;;;5066786;28;20446;-72
2022/07/07 06:23:52;;;;;;;6.57;2.20;;;17.60;83.10;;;;;;5074451;28;20841;-72
2022/07/07 06:26:38;;;;;;;6.60;2.40;;;17.70;84.80;;;;;;5077175;28;20521;-72
2022/07/07 06:29:24;;;;;;;5.80;2.00;;;17.70;79.90;;;;;;5068917;28;20422;-72
2022/07/07 06:32:10;;;;;;;5.67;1.93;;;17.80;82.10;;;;;;5067969;28;20450;-72
2022/07/07 06:34:56;;;;;;;8.80;2.60;;;17.90;80.80;;;;;;5071949;28;20439;-68
2022/07/07 06:37:42;;;;;;;14.83;2.83;;;18.00;79.00;;;;;;5073262;28;20430;-72
2022/07/07 06:40:29;;;;;;;7.17;1.87;;;18.20;78.50;;;;;;5068755;28;20494;-71
2022/07/07 06:43:14;;;;;;;4.27;1.70;;;18.20;75.80;;;;;;5071630;28;21073;-72
2022/07/07 06:46:00;;;;;;;3.23;1.80;;;18.30;76.40;;;;;;5072596;28;20478;-71
2022/07/07 06:48:46;;;;;;;10.03;2.60;;;18.30;76.90;;;;;;5071973;28;20446;-71
2022/07/07 06:51:32;;;;;;;11.73;2.37;;;18.20;74.60;;;;;;5068660;28;20454;-72
2022/07/07 06:54:17;;;;;;;3.87;1.93;;;18.10;75.80;;;;;;5075760;28;20486;-72
2022/07/07 06:57:04;;;;;;;3.23;2.10;;;18.10;75.30;;;;;;5074085;28;20446;-71
2022/07/07 06:59:50;;;;;;;4.30;2.30;;;18.00;76.00;;;;;;5069035;28;20528;-70
2022/07/07 07:02:42;;;;;;;4.20;2.00;;;18.00;76.10;;;;;;5072000;28;20478;-72
2022/07/07 07:05:28;;;;;;;4.53;2.30;;;18.00;77.00;;;;;;5087056;22;20498;-71
2022/07/07 07:08:13;;;;;;;4.43;2.23;;;18.10;78.60;;;;;;5077780;28;20502;-72
2022/07/07 07:10:59;;;;;;;6.00;2.53;;;18.10;78.60;;;;;;5067301;28;20955;-71
2022/07/07 07:13:47;;;;;;;10.93;2.50;;;18.10;76.40;;;;;;5067836;28;20450;-71
2022/07/07 07:16:33;;;;;;;6.43;2.47;;;18.00;77.10;;;;;;5070650;28;20431;-71
2022/07/07 07:19:19;;;;;;;6.50;2.50;;;17.90;77.10;;;;;;5071849;28;20430;-72
2022/07/07 07:22:05;;;;;;;4.50;2.77;;;17.80;77.70;;;;;;5070755;28;20874;-71
2022/07/07 07:24:50;;;;;;;6.87;2.63;;;17.80;79.20;;;;;;5069742;28;20459;-71
2022/07/07 07:27:36;;;;;;;9.93;2.47;;;17.80;80.10;;;;;;5065631;28;21010;-71
2022/07/07 07:30:23;;;;;;;5.53;2.40;;;17.80;80.10;;;;;;5067686;28;20521;-72
2022/07/07 07:33:09;;;;;;;9.73;3.50;;;17.70;80.30;;;;;;5070865;28;20824;-72
2022/07/07 07:35:54;;;;;;;7.60;2.60;;;17.70;81.00;;;;;;5068181;28;20398;-72
2022/07/07 07:38:41;;;;;;;4.77;2.90;;;17.70;81.80;;;;;;5068615;28;20455;-72
2022/07/07 07:41:26;;;;;;;8.60;2.83;;;17.70;82.10;;;;;;5067460;28;20589;-72
2022/07/07 07:44:12;;;;;;;5.40;3.30;;;17.80;83.80;;;;;;5070771;28;20558;-71
2022/07/07 07:46:59;;;;;;;9.00;2.97;;;17.90;83.90;;;;;;5071505;28;20482;-72
2022/07/07 07:49:45;;;;;;;3.37;2.70;;;17.90;85.20;;;;;;5062261;28;20493;-71
2022/07/07 07:52:30;;;;;;;9.53;3.20;;;17.90;83.70;;;;;;5071078;28;20477;-72
2022/07/07 07:55:16;;;;;;;3.20;2.37;;;17.90;84.50;;;;;;5070159;28;20439;-71
2022/07/07 07:58:02;;;;;;;11.33;3.13;;;17.90;84.70;;;;;;5070135;28;20451;-71
2022/07/07 08:00:48;;;;;;;4.77;3.00;;;18.10;84.70;;;;;;5067533;28;20497;-71
2022/07/07 08:03:35;;;;;;;5.73;2.83;;;18.10;84.40;;;;;;5069964;28;20442;-71
2022/07/07 08:06:21;;;;;;;4.50;2.90;;;18.20;83.70;;;;;;5070747;28;20441;-72
2022/07/07 08:09:07;;;;;;;9.63;2.83;;;18.30;84.10;;;;;;5066899;28;20828;-72
2022/07/07 08:11:52;;;;;;;12.33;4.37;;;18.30;83.20;;;;;;5070107;28;20903;-71
2022/07/07 08:14:38;;;;;;;8.70;3.27;;;18.40;84.00;;;;;;5069841;28;20589;-72
2022/07/07 08:17:24;;;;;;;4.50;3.00;;;18.50;85.00;;;;;;5070093;28;20423;-71
2022/07/07 08:20:11;;;;;;;10.87;3.00;;;18.40;84.50;;;;;;5066235;28;20457;-71
2022/07/07 08:22:57;;;;;;;18.00;3.30;;;18.50;83.20;;;;;;5070150;28;20450;-72
2022/07/07 08:25:43;;;;;;;4.70;2.80;;;18.60;83.50;;;;;;5070304;28;20935;-71
2022/07/07 08:28:29;;;;;;;5.00;2.80;;;18.50;82.70;;;;;;5068092;28;20442;-73
2022/07/07 08:31:14;;;;;;;4.30;2.87;;;18.50;82.70;;;;;;5070472;28;20422;-72
2022/07/07 08:34:00;;;;;;;5.17;2.97;;;18.50;82.70;;;;;;5070893;28;20443;-72
2022/07/07 08:36:47;;;;;;;6.30;3.43;;;18.40;83.90;;;;;;5065712;28;20423;-72
2022/07/07 08:39:33;;;;;;;8.40;3.17;;;18.40;82.60;;;;;;5064798;28;20812;-71
2022/07/07 08:42:19;;;;;;;5.93;3.27;;;18.30;83.00;;;;;;5069834;28;20454;-71
2022/07/07 08:45:06;;;;;;;6.87;2.70;;;18.40;82.60;;;;;;5069384;28;20505;-71
2022/07/07 08:47:52;;;;;;;5.43;2.90;;;18.50;82.70;;;;;;5069431;28;20999;-72
2022/07/07 08:50:39;;;;;;;4.53;2.60;;;18.60;82.80;;;;;;5067497;28;21070;-72
2022/07/07 08:53:27;;;;;;;13.47;3.40;;;18.60;82.80;;;;;;5069010;28;20462;-72
2022/07/07 08:56:15;;;;;;;6.90;3.63;;;18.50;82.70;;;;;;5069343;28;20471;-72
2022/07/07 08:59:00;;;;;;;14.23;3.20;;;18.50;84.00;;;;;;5065522;28;20451;-72
2022/07/07 09:01:54;;;;;;;6.00;2.90;;;18.60;83.90;;;;;;5069566;28;20401;-72
2022/07/07 09:04:40;;;;;;;5.07;2.87;;;18.70;82.90;;;;;;5065181;28;20479;-72
2022/07/07 09:07:45;;;;;;;5.37;2.83;;;18.90;83.30;;;;;;5068786;28;20852;-71
2022/07/07 09:10:34;;;;;;;6.77;2.97;;;19.10;82.50;;;;;;5067921;28;20573;-72
2022/07/07 09:13:25;;;;;;;6.43;2.90;;;19.20;81.60;;;;;;5069546;28;20461;-72
2022/07/07 09:16:15;;;;;;;8.83;2.90;;;19.30;82.00;;;;;;5068772;28;20401;-72
2022/07/07 09:19:00;;;;;;;6.83;3.10;;;19.50;82.10;;;;;;5065770;28;20975;-72
2022/07/07 09:21:47;;;;;;;6.53;2.97;;;19.60;82.40;;;;;;5067573;28;20446;-71
2022/07/07 09:24:33;;;;;;;7.70;2.70;;;19.70;80.20;;;;;;5065321;28;20853;-72
2022/07/07 09:27:20;;;;;;;6.17;2.90;;;19.90;83.30;;;;;;5067703;28;20881;-72
2022/07/07 09:30:06;;;;;;;9.60;4.00;;;20.10;79.40;;;;;;5067437;28;20443;-71
2022/07/07 09:32:52;;;;;;;6.00;3.43;;;20.30;78.60;;;;;;5068698;28;20585;-72
2022/07/07 09:38:43;;;;;;;8.60;3.30;;;20.50;79.10;;;;;;5065095;28;20446;-70
2022/07/07 09:41:29;;;;;;;9.57;2.90;;;20.40;77.60;;;;;;5070004;28;20894;-70
2022/07/07 09:44:19;;;;;;;7.70;2.90;;;20.10;77.20;;;;;;5067487;28;20490;-70
2022/07/07 09:47:09;;;;;;;4.57;2.93;;;20.00;78.90;;;;;;5066136;28;20540;-69
2022/07/07 09:50:00;;;;;;;8.33;2.70;;;19.80;79.10;;;;;;5064907;28;20553;-70
2022/07/07 09:52:47;;;;;;;6.60;2.70;;;19.60;79.80;;;;;;5067973;28;20536;-71
2022/07/07 09:55:33;;;;;;;8.60;2.70;;;19.60;81.60;;;;;;5069442;28;20609;-70
2022/07/07 09:58:18;;;;;;;7.30;3.33;;;19.60;83.60;;;;;;5065633;28;20454;-71
2022/07/07 10:01:06;;;;;;;11.13;3.03;;;19.70;83.90;;;;;;5067295;28;20446;-71
2022/07/07 10:03:55;;;;;;;6.43;2.70;;;19.80;83.80;;;;;;5066910;28;21049;-70
2022/07/07 10:06:43;;;;;;;5.10;2.90;;;19.80;84.40;;;;;;5064916;28;21022;-70
2022/07/07 10:09:29;;;;;;;10.77;2.70;;;19.70;83.00;;;;;;5064216;28;21043;-70
2022/07/07 10:12:17;;;;;;;6.20;2.77;;;19.70;83.70;;;;;;5066324;28;20442;-70
2022/07/07 10:15:04;;;;;;;6.83;2.87;;;19.70;84.90;;;;;;5071033;28;20446;-69
2022/07/07 10:17:52;;;;;;;10.97;3.27;;;19.60;84.50;;;;;;5066727;28;20450;-69
2022/07/07 10:20:38;;;;;;;4.03;2.27;;;19.70;85.90;;;;;;5073569;28;20573;-70
2022/07/07 10:23:24;;;;;;;9.63;2.87;;;19.70;87.00;;;;;;5073160;28;20422;-69
2022/07/07 10:26:10;;;;;;;5.40;2.50;;;19.60;87.70;;;;;;5071515;28;20443;-70
2022/07/07 10:28:59;;;;;;;4.00;2.40;;;19.60;87.50;;;;;;5067644;28;20512;-69
2022/07/07 10:31:51;;;;;;;4.33;2.80;;;19.50;89.10;;;;;;5068020;28;20446;-71
2022/07/07 10:34:39;;;;;;;7.27;3.50;;;19.40;90.10;;;;;;5069423;28;20523;-69
2022/07/07 10:37:27;;;;;;;7.73;3.40;;;19.30;95.20;;;;;;5070387;28;20742;-69
2022/07/07 10:40:17;;;;;;;13.13;3.33;;;19.30;97.70;;;;;;5071113;28;20450;-70
2022/07/07 10:43:23;;;;;;;11.10;4.40;;;19.40;99.90;;;;;;5070539;28;20435;-69
2022/07/07 10:46:10;;;;;;;5.97;3.43;;;19.40;99.90;;;;;;5070112;28;20671;-70
2022/07/07 10:49:08;;;;;;;12.40;3.63;;;19.40;99.90;;;;;;5068794;28;20549;-70
2022/07/07 10:51:57;;;;;;;9.17;3.57;;;19.40;99.90;;;;;;5069613;28;20514;-70
2022/07/07 10:54:45;;;;;;;6.87;3.33;;;19.20;99.90;;;;;;5067018;28;20474;-70
2022/07/07 10:57:40;;;;;;;5.47;3.33;;;19.30;99.90;;;;;;5065157;28;20450;-70
2022/07/07 11:00:28;;;;;;;8.00;2.97;;;19.20;99.90;;;;;;5068793;28;20425;-70
2022/07/07 11:03:16;;;;;;;3.80;2.27;;;19.00;99.90;;;;;;5067816;28;20532;-70
2022/07/07 11:06:03;;;;;;;3.40;2.10;;;18.80;99.90;;;;;;5066720;28;20605;-70
2022/07/07 11:09:01;;;;;;;7.47;2.00;;;18.70;99.90;;;;;;5067272;28;20501;-70
2022/07/07 11:11:47;;;;;;;2.37;1.80;;;18.80;99.90;;;;;;5069511;28;20994;-70
2022/07/07 11:14:33;;;;;;;3.00;2.13;;;18.90;99.90;;;;;;5069546;28;21172;-70
2022/07/07 11:17:22;;;;;;;4.83;2.20;;;19.00;99.90;;;;;;5065347;28;20852;-70
2022/07/07 11:20:09;;;;;;;2.83;1.40;;;19.00;99.90;;;;;;5066667;28;20439;-70
2022/07/07 11:23:05;;;;;;;2.10;1.33;;;18.80;99.90;;;;;;5066792;28;20454;-70
2022/07/07 11:25:56;;;;;;;4.57;1.33;;;18.60;99.90;;;;;;5069725;28;20520;-70
2022/07/07 11:28:42;;;;;;;2.13;1.03;;;18.40;99.90;;;;;;5069123;28;20475;-70
2022/07/07 11:31:28;;;;;;;1.40;0.90;;;18.10;99.90;;;;;;5067116;28;20573;-70
2022/07/07 11:34:14;;;;;;;1.80;1.10;;;18.00;99.90;;;;;;5066728;28;20553;-70
2022/07/07 11:37:17;;;;;;;2.67;1.10;;;17.90;99.90;;;;;;5065341;28;20577;-70
2022/07/07 11:40:04;;;;;;;4.03;1.60;;;17.80;99.90;;;;;;5062976;28;20475;-70
2022/07/07 11:42:51;;;;;;;3.07;1.60;;;17.80;99.90;;;;;;5069270;28;20442;-70
2022/07/07 11:45:39;;;;;;;2.23;1.53;;;17.70;99.90;;;;;;5064275;28;20455;-70
2022/07/07 11:48:32;;;;;;;1.90;1.50;;;17.50;99.90;;;;;;5065890;28;20477;-70
2022/07/07 11:51:18;;;;;;;2.53;1.60;;;17.50;99.90;;;;;;5066224;28;20813;-70
2022/07/07 11:54:03;;;;;;;4.90;2.23;;;17.50;99.90;;;;;;5068073;28;20481;-70
2022/07/07 11:56:49;;;;;;;2.97;1.47;;;17.40;99.90;;;;;;5064128;28;20514;-70
2022/07/07 11:59:36;;;;;;;1.97;1.57;;;17.40;99.90;;;;;;5068107;28;20439;-70
2022/07/07 12:02:22;;;;;;;4.20;1.60;;;17.50;99.90;;;;;;5067716;28;20959;-70
2022/07/07 12:05:08;;;;;;;2.33;1.40;;;17.60;99.90;;;;;;5066266;28;20444;-69
2022/07/07 12:07:55;;;;;;;2.77;1.67;;;17.80;99.90;;;;;;5065391;28;20651;-70
2022/07/07 12:10:42;;;;;;;5.20;1.87;;;17.90;99.90;;;;;;5066939;28;20805;-69
2022/07/07 12:13:27;;;;;;;4.43;2.17;;;17.90;99.90;;;;;;5069485;28;20485;-70
2022/07/07 12:16:15;;;;;;;2.50;2.00;;;18.00;99.90;;;;;;5063843;28;20446;-70
2022/07/07 12:19:00;;;;;;;2.30;1.70;;;18.00;99.90;;;;;;5065929;28;20989;-70
2022/07/07 12:21:47;;;;;;;2.80;2.40;;;18.20;99.90;;;;;;5064948;28;20447;-70
2022/07/07 12:24:34;;;;;;;2.40;2.10;;;18.20;99.90;;;;;;5067790;28;20555;-70
2022/07/07 12:27:19;;;;;;;2.40;2.00;;;18.20;99.90;;;;;;5063628;28;20955;-70
2022/07/07 12:30:06;;;;;;;2.53;1.80;;;18.20;99.90;;;;;;5066138;28;20450;-70
2022/07/07 12:32:54;;;;;;;9.10;2.13;;;18.30;99.90;;;;;;5067328;28;20540;-71
2022/07/07 12:35:40;;;;;;;3.10;1.77;;;18.30;99.90;;;;;;5065186;28;20470;-72
2022/07/07 12:38:36;;;;;;;3.40;2.60;;;18.40;99.90;;;;;;5071159;28;21024;-72
2022/07/07 12:41:26;;;;;;;2.83;2.30;;;18.60;99.90;;;;;;5060536;28;20497;-71
2022/07/07 12:44:14;;;;;;;3.87;2.13;;;18.80;99.90;;;;;;5075073;28;20463;-72
2022/07/07 12:46:59;;;;;;;2.43;1.70;;;19.00;99.90;;;;;;5066662;28;20513;-72
2022/07/07 12:49:54;;;;;;;4.73;2.60;;;19.30;99.90;;;;;;5064469;28;20905;-72
2022/07/07 12:52:40;;;;;;;3.00;1.80;;;19.50;99.90;;;;;;5068600;28;20434;-72
2022/07/07 12:55:37;;;;;;;2.30;1.77;;;19.70;99.90;;;;;;5063718;28;20513;-72
2022/07/07 12:58:23;;;;;;;2.77;1.57;;;19.70;99.90;;;;;;5067579;28;20447;-72
2022/07/07 13:01:13;;;;;;;5.23;2.87;;;19.80;99.90;;;;;;5068105;28;20941;-72
2022/07/07 13:03:59;;;;;;;5.00;1.93;;;19.80;99.90;;;;;;5083563;22;20486;-70
2022/07/07 13:06:46;;;;;;;2.57;1.67;;;19.90;99.90;;;;;;5047828;28;20485;-70
2022/07/07 13:09:32;;;;;;;8.70;1.50;;;20.10;99.90;;;;;;5054802;28;20558;-70
2022/07/07 13:12:18;;;;;;;5.63;1.40;;;20.20;99.90;;;;;;5047081;28;20445;-70
2022/07/07 13:15:04;;;;;;;2.77;1.37;;;20.20;99.30;;;;;;5048049;28;20459;-70
2022/07/07 13:17:50;;;;;;;1.83;1.37;;;20.20;99.20;;;;;;5050065;28;21001;-69
2022/07/07 13:20:36;;;;;;;3.10;2.13;;;20.30;97.50;;;;;;5054275;28;20972;-69
2022/07/07 13:23:23;;;;;;;3.20;1.40;;;20.40;96.60;;;;;;5047124;28;20536;-69
2022/07/07 13:26:10;;;;;;;6.03;1.30;;;20.30;94.90;;;;;;5046509;28;20464;-70
2022/07/07 13:28:56;;;;;;;3.37;1.57;;;20.20;93.40;;;;;;5055299;28;20474;-70
2022/07/07 13:31:42;;;;;;;5.10;1.30;;;20.10;95.20;;;;;;5050359;28;20438;-68
2022/07/07 13:34:28;;;;;;;1.93;1.00;;;20.00;92.00;;;;;;5052198;28;20489;-70
2022/07/07 13:37:14;;;;;;;2.43;0.90;;;19.90;88.00;;;;;;5046093;28;21026;-69
2022/07/07 13:40:01;;;;;;;13.03;1.67;;;19.90;88.60;;;;;;5049358;28;20952;-69
2022/07/07 13:42:46;;;;;;;2.13;0.90;;;20.00;90.70;;;;;;5060250;28;20442;-69
2022/07/07 13:45:33;;;;;;;3.40;1.30;;;20.10;91.20;;;;;;5048768;28;20475;-70
2022/07/07 13:48:18;;;;;;;3.20;1.50;;;20.10;89.30;;;;;;5051909;28;21083;-69
2022/07/07 13:51:04;;;;;;;2.63;1.90;;;20.00;86.40;;;;;;5056853;28;20516;-70
2022/07/07 13:53:50;;;;;;;4.23;2.47;;;20.00;88.00;;;;;;5055826;28;20796;-70
2022/07/07 13:56:37;;;;;;;3.10;2.33;;;20.00;85.00;;;;;;5049278;28;20448;-70
2022/07/07 13:59:22;;;;;;;6.73;2.20;;;20.10;84.50;;;;;;5051419;28;20566;-71
2022/07/07 14:02:09;;;;;;;2.27;1.83;;;20.10;84.00;;;;;;5049933;28;20435;-69
2022/07/07 14:04:55;;;;;;;2.50;1.60;;;20.10;85.30;;;;;;5050804;28;20479;-70
2022/07/07 14:07:41;;;;;;;3.40;2.07;;;20.00;83.10;;;;;;5054683;28;20477;-69
2022/07/07 14:10:27;;;;;;;4.23;1.73;;;20.10;84.00;;;;;;5055957;28;21030;-69
2022/07/07 14:13:14;;;;;;;4.90;1.77;;;20.00;83.10;;;;;;5056143;28;20438;-69
2022/07/07 14:16:00;;;;;;;3.80;1.70;;;20.00;84.30;;;;;;5053892;28;20459;-71
2022/07/07 14:18:46;;;;;;;4.80;2.13;;;20.10;86.80;;;;;;5057073;28;20462;-71
2022/07/07 14:21:31;;;;;;;2.80;1.77;;;20.10;83.50;;;;;;5056118;28;20447;-70
2022/07/07 14:24:17;;;;;;;2.30;1.60;;;20.10;84.40;;;;;;5050013;28;20521;-69
2022/07/07 14:27:03;;;;;;;2.07;1.60;;;20.10;85.80;;;;;;5050293;28;20850;-70
2022/07/07 14:29:50;;;;;;;3.10;1.30;;;20.10;84.20;;;;;;5060095;28;20467;-70